KDBN/DBN METAR and TAF weather

Enter ICAO airport designator
Station Type Date Time Source
KDBN METAR 2020/04/04 21:35 UTC NOAA

KDBN 042135Z AUTO 04007KT 10SM SCT075 26/07 A2992 RMK AO2


Station Type Date Time Source
KDBN Decoded METAR 2020/04/04 21:35 UTC NOAA

Dublin, W H 'Bud' Barron Airport, GA, United States (KDBN) 32-33-52N 082-59-06W
Apr 04, 2020 - 05:35 PM EDT / 2020.04.04 2135 UTC
Wind: from the NE (040 degrees) at 8 MPH (7 KT):0
Visibility: 10 mile(s):0
Sky conditions: partly cloudy
Temperature: 78 F (26 C)
Dew Point: 44 F (7 C)
Relative Humidity: 29%
Pressure (altimeter): 29.92 in. Hg (1013 hPa)
ob: KDBN 042135Z AUTO 04007KT 10SM SCT075 26/07 A2992 RMK AO2
cycle: 21

Station Type Date Time Source
KDBN TAF UTC NOAA

Error!

Example: see airport list